Time;durP1;ratioP1;P1;durP2;ratioP2;P2;SDS_P1;SDS_P2;PMS_P1;PMS_P2;Temp;Humidity;BMP_temperature;BMP_pressure;BME280_temperature;BME280_humidity;BME280_pressure;Samples;Min_cycle;Max_cycle;Signal;HPM_P1;HPM_P2
2022/01/10 00:02:13;;;;;;;0.43;0.43;;;;;;;10.03;100.00;93800.47;5131539;28;20531;-54
2022/01/10 00:04:42;;;;;;;0.80;0.80;;;;;;;9.78;100.00;93809.03;5134738;27;20525;-54
2022/01/10 00:07:11;;;;;;;0.83;0.83;;;;;;;9.78;100.00;93813.53;5136366;27;20515;-53
2022/01/10 00:09:39;;;;;;;1.90;1.90;;;;;;;9.55;100.00;93754.53;5136271;27;20422;-53
2022/01/10 00:12:08;;;;;;;0.50;0.47;;;;;;;10.04;100.00;93807.31;5135904;27;20455;-53
2022/01/10 00:14:37;;;;;;;0.30;0.20;;;;;;;10.02;100.00;93806.84;5135951;27;20430;-54
2022/01/10 00:17:06;;;;;;;0.40;0.30;;;;;;;10.07;100.00;93805.94;5136261;27;20427;-54
2022/01/10 00:19:36;;;;;;;0.40;0.40;;;;;;;10.08;100.00;93797.72;5136013;27;20974;-54
2022/01/10 00:22:07;;;;;;;0.37;0.30;;;;;;;10.02;100.00;93806.84;5135560;27;20997;-54
2022/01/10 00:24:35;;;;;;;0.77;0.77;;;;;;;9.97;100.00;93795.59;5135653;27;20492;-53
2022/01/10 00:27:04;;;;;;;0.47;0.30;;;;;;;9.08;100.00;93659.97;5135739;27;20410;-53
2022/01/10 00:29:33;;;;;;;0.57;0.57;;;;;;;9.74;100.00;93808.03;5135792;27;20481;-53
2022/01/10 00:32:02;;;;;;;0.43;0.40;;;;;;;9.82;100.00;93802.03;5136083;27;20832;-54
2022/01/10 00:34:30;;;;;;;0.37;0.23;;;;;;;9.78;100.00;93784.44;5135885;27;20419;-53
2022/01/10 00:37:00;;;;;;;0.30;0.20;;;;;;;9.86;100.00;93799.59;5135635;27;20438;-53
2022/01/10 00:39:29;;;;;;;0.30;0.20;;;;;;;9.83;100.00;93803.63;5134871;27;20775;-52
2022/01/10 00:41:57;;;;;;;0.30;0.23;;;;;;;9.69;100.00;93802.88;5135366;27;20442;-53
2022/01/10 00:44:27;;;;;;;0.30;0.20;;;;;;;9.69;100.00;93800.22;5135777;27;20411;-53
2022/01/10 00:46:56;;;;;;;0.30;0.20;;;;;;;9.15;100.00;93702.59;5134384;27;20934;-53
2022/01/10 00:49:24;;;;;;;0.40;0.37;;;;;;;9.93;100.00;93799.94;5135441;27;20918;-53
2022/01/10 00:51:52;;;;;;;5.83;1.03;;;;;;;9.68;100.00;93782.03;5135421;27;20471;-53
2022/01/10 00:54:22;;;;;;;0.60;0.60;;;;;;;9.42;100.00;93802.97;5135350;27;20458;-53
2022/01/10 00:56:51;;;;;;;0.30;0.30;;;;;;;9.25;100.00;93803.59;5135392;27;20893;-53
2022/01/10 00:59:19;;;;;;;1.47;1.33;;;;;;;9.22;100.00;93790.97;5135148;27;20430;-53
2022/01/10 01:01:48;;;;;;;0.80;0.80;;;;;;;9.34;100.00;93793.09;5134820;27;21021;-53
2022/01/10 01:04:17;;;;;;;1.70;1.40;;;;;;;8.76;100.00;93732.25;5134998;27;20434;-53
2022/01/10 01:06:45;;;;;;;1.80;0.40;;;;;;;9.47;100.00;93800.22;5135221;27;20447;-52
2022/01/10 01:09:16;;;;;;;0.60;0.30;;;;;;;9.74;100.00;93786.13;5134675;27;20430;-52
2022/01/10 01:12:09;;;;;;;2.63;1.80;;;;;;;9.52;100.00;93777.09;5134902;27;21053;-53
2022/01/10 01:14:50;;;;;;;1.33;1.33;;;;;;;9.50;100.00;93767.88;5135397;27;20473;-53
2022/01/10 01:17:56;;;;;;;3.40;0.77;;;;;;;9.42;100.00;93745.59;5134563;27;20454;-53
2022/01/10 01:20:43;;;;;;;0.90;0.90;;;;;;;9.85;100.00;93768.91;5134597;27;20469;-53
2022/01/10 01:26:01;;;;;;;0.30;0.20;;;;;;;9.67;100.00;93760.06;5134544;27;20962;-52
2022/01/10 01:28:32;;;;;;;0.30;0.30;;;;;;;9.67;100.00;93759.28;5134498;27;20521;-52
2022/01/10 01:31:00;;;;;;;0.50;0.50;;;;;;;9.58;100.00;93753.94;5134351;27;21018;-53
2022/01/10 01:33:30;;;;;;;0.37;0.30;;;;;;;9.70;100.00;93764.75;5134555;27;20894;-53
2022/01/10 01:35:58;;;;;;;0.30;0.30;;;;;;;9.81;100.00;93758.16;5133576;27;20434;-52
2022/01/10 01:38:26;;;;;;;0.60;0.60;;;;;;;9.83;100.00;93756.00;5134424;27;20444;-52
2022/01/10 01:41:09;;;;;;;0.40;0.40;;;;;;;9.82;100.00;93762.34;5133952;27;20496;-53
2022/01/10 01:43:40;;;;;;;0.90;0.90;;;;;;;9.79;100.00;93757.66;5134120;27;20465;-53
2022/01/10 01:46:09;;;;;;;0.30;0.20;;;;;;;9.87;100.00;93762.22;5134239;27;20431;-52
2022/01/10 01:48:38;;;;;;;0.57;0.57;;;;;;;9.69;100.00;93751.84;5134046;27;20487;-52
2022/01/10 01:51:06;;;;;;;1.33;0.40;;;;;;;9.82;100.00;93753.63;5133992;27;20991;-53
2022/01/10 01:53:36;;;;;;;0.30;0.20;;;;;;;9.79;100.00;93747.06;5133973;27;20484;-53
2022/01/10 01:56:06;;;;;;;0.40;0.37;;;;;;;9.73;100.00;93756.22;5134260;27;20853;-53
2022/01/10 01:58:36;;;;;;;0.30;0.30;;;;;;;9.64;100.00;93755.38;5133848;27;20435;-53
2022/01/10 02:01:07;;;;;;;0.37;0.30;;;;;;;9.71;100.00;93755.75;5133729;27;20513;-53
2022/01/10 02:03:38;;;;;;;0.40;0.40;;;;;;;9.39;100.00;93750.69;5133944;27;20814;-53
2022/01/10 02:06:07;;;;;;;0.60;0.60;;;;;;;9.43;100.00;93752.44;5134439;27;20452;-53
2022/01/10 02:08:37;;;;;;;1.70;1.10;;;;;;;9.24;100.00;93751.03;5133056;27;21007;-53
2022/01/10 02:11:09;;;;;;;0.40;0.30;;;;;;;8.68;100.00;93760.13;5134028;27;20418;-54
2022/01/10 02:13:38;;;;;;;0.53;0.50;;;;;;;8.21;100.00;93721.69;5133680;27;20430;-54
2022/01/10 02:16:10;;;;;;;0.83;0.77;;;;;;;8.40;100.00;93750.66;5133602;27;20419;-54
2022/01/10 02:18:39;;;;;;;0.40;0.30;;;;;;;8.44;100.00;93762.19;5133565;27;20461;-54
2022/01/10 02:21:09;;;;;;;1.17;0.87;;;;;;;8.56;100.00;93745.84;5133434;27;20515;-54
2022/01/10 02:23:39;;;;;;;0.50;0.50;;;;;;;8.47;100.00;93755.56;5133751;27;20850;-54
2022/01/10 02:26:07;;;;;;;0.40;0.30;;;;;;;8.49;100.00;93748.13;5133428;27;20423;-54
2022/01/10 02:28:36;;;;;;;2.30;2.20;;;;;;;8.45;100.00;93752.44;5132207;27;20955;-54
2022/01/10 02:31:06;;;;;;;0.30;0.20;;;;;;;8.46;100.00;93746.84;5133321;27;20427;-54
2022/01/10 02:33:35;;;;;;;0.30;0.20;;;;;;;8.07;100.00;93754.44;5133304;27;20435;-54
2022/01/10 02:36:13;;;;;;;0.77;0.77;;;;;;;7.41;100.00;93665.13;5133162;27;20431;-54
2022/01/10 02:38:51;;;;;;;0.30;0.20;;;;;;;7.53;100.00;93695.22;5133474;27;20478;-54
2022/01/10 02:41:25;;;;;;;0.40;0.30;;;;;;;7.25;100.00;93688.28;5133137;27;20910;-54
2022/01/10 02:43:54;;;;;;;0.80;0.30;;;;;;;7.74;100.00;93747.59;5133064;27;20434;-53
2022/01/10 02:46:24;;;;;;;0.97;0.30;;;;;;;7.81;100.00;93737.47;5132949;27;20976;-53
2022/01/10 02:48:52;;;;;;;4.10;0.40;;;;;;;7.89;100.00;93750.00;5133198;27;20423;-54
2022/01/10 02:51:21;;;;;;;0.30;0.20;;;;;;;8.10;100.00;93746.69;5132900;27;20910;-53
2022/01/10 02:53:51;;;;;;;0.70;0.47;;;;;;;8.02;100.00;93738.69;5133311;27;20446;-54
2022/01/10 02:56:19;;;;;;;0.30;0.20;;;;;;;7.86;100.00;93745.28;5132953;27;20943;-54
2022/01/10 02:58:47;;;;;;;0.30;0.20;;;;;;;7.87;100.00;93741.59;5132833;27;20483;-53
2022/01/10 03:01:16;;;;;;;0.30;0.20;;;;;;;8.09;100.00;93744.34;5132420;27;20481;-54
2022/01/10 03:03:44;;;;;;;0.63;0.63;;;;;;;8.05;100.00;93740.72;5132764;27;20438;-53
2022/01/10 03:06:13;;;;;;;0.50;0.47;;;;;;;8.17;100.00;93744.44;5133088;27;20466;-53
2022/01/10 03:08:41;;;;;;;0.30;0.20;;;;;;;8.01;100.00;93747.66;5132643;27;20427;-53
2022/01/10 03:11:11;;;;;;;0.30;0.20;;;;;;;7.52;100.00;93654.09;5132348;27;20461;-53
2022/01/10 03:13:39;;;;;;;0.30;0.20;;;;;;;7.76;100.00;93684.81;5131990;27;20430;-53
2022/01/10 03:16:08;;;;;;;0.30;0.20;;;;;;;8.42;100.00;93745.09;5132124;27;20505;-54
2022/01/10 03:18:36;;;;;;;0.30;0.20;;;;;;;8.41;100.00;93741.66;5132002;28;20438;-53
2022/01/10 03:21:05;;;;;;;0.30;0.20;;;;;;;8.44;100.00;93751.66;5132543;28;20435;-53
2022/01/10 03:23:33;;;;;;;0.30;0.20;;;;;;;8.47;100.00;93745.78;5132885;28;20430;-53
2022/01/10 03:26:02;;;;;;;0.30;0.20;;;;;;;8.70;100.00;93742.13;5132778;27;20438;-53
2022/01/10 03:28:31;;;;;;;0.30;0.20;;;;;;;8.15;100.00;93685.13;5132458;28;20439;-53
2022/01/10 03:31:00;;;;;;;0.30;0.20;;;;;;;8.54;100.00;93732.97;5132514;28;20478;-53
2022/01/10 03:33:28;;;;;;;0.30;0.20;;;;;;;8.37;100.00;93737.28;5132649;28;20466;-53
2022/01/10 03:35:57;;;;;;;0.30;0.20;;;;;;;8.19;100.00;93757.38;5132349;28;20451;-53
2022/01/10 03:38:25;;;;;;;0.30;0.20;;;;;;;8.34;100.00;93746.56;5132826;27;20422;-53
2022/01/10 03:40:54;;;;;;;0.30;0.20;;;;;;;8.10;100.00;93751.97;5137055;27;20503;-53
2022/01/10 03:43:22;;;;;;;0.30;0.30;;;;;;;7.89;100.00;93758.69;5136439;27;20470;-53
2022/01/10 03:45:53;;;;;;;0.30;0.30;;;;;;;8.04;100.00;93749.72;5136910;27;20437;-53
2022/01/10 03:48:21;;;;;;;0.40;0.30;;;;;;;8.17;100.00;93756.88;5136745;27;20469;-54
2022/01/10 03:50:50;;;;;;;0.30;0.30;;;;;;;8.34;100.00;93766.88;5136508;27;20434;-53
2022/01/10 03:53:19;;;;;;;0.30;0.20;;;;;;;8.63;100.00;93760.22;5136631;27;20431;-53
2022/01/10 03:55:47;;;;;;;0.30;0.20;;;;;;;8.16;100.00;93697.25;5136402;27;20422;-54
2022/01/10 03:58:16;;;;;;;1.50;1.27;;;;;;;8.79;100.00;93758.84;5136287;27;20964;-53
2022/01/10 04:00:44;;;;;;;0.30;0.20;;;;;;;8.80;100.00;93760.41;5136024;27;20506;-54
2022/01/10 04:03:14;;;;;;;0.40;0.40;;;;;;;8.63;100.00;93754.94;5136027;27;21005;-54
2022/01/10 04:05:42;;;;;;;0.40;0.30;;;;;;;8.78;100.00;93759.94;5136120;27;20459;-54
2022/01/10 04:08:12;;;;;;;0.60;0.30;;;;;;;8.92;100.00;93768.63;5136368;27;20426;-54
2022/01/10 04:10:41;;;;;;;0.30;0.20;;;;;;;8.91;100.00;93764.41;5136252;27;20430;-54
2022/01/10 04:13:10;;;;;;;0.47;0.47;;;;;;;8.99;100.00;93767.44;5135634;27;20499;-54
2022/01/10 04:15:38;;;;;;;0.30;0.23;;;;;;;9.06;100.00;93768.59;5135671;27;20431;-54
2022/01/10 04:18:07;;;;;;;1.07;1.07;;;;;;;9.02;100.00;93764.19;5135883;27;20479;-53
2022/01/10 04:20:43;;;;;;;0.30;0.20;;;;;;;9.18;100.00;93776.03;5136163;27;20791;-53
2022/01/10 04:23:12;;;;;;;0.77;0.77;;;;;;;8.86;100.00;93743.38;5135670;27;20492;-53
2022/01/10 04:25:41;;;;;;;0.30;0.20;;;;;;;9.11;100.00;93770.38;5135408;27;20495;-53
2022/01/10 04:28:10;;;;;;;0.30;0.20;;;;;;;8.99;100.00;93778.78;5135769;27;20899;-53
2022/01/10 04:30:39;;;;;;;0.30;0.20;;;;;;;8.99;100.00;93780.63;5135892;27;20426;-53
2022/01/10 04:33:10;;;;;;;0.30;0.20;;;;;;;7.71;100.00;93611.84;5135933;27;20425;-53
2022/01/10 04:35:39;;;;;;;0.30;0.30;;;;;;;8.77;100.00;93776.06;5135550;27;20914;-53
2022/01/10 04:38:09;;;;;;;0.77;0.73;;;;;;;8.33;100.00;93697.47;5135151;27;20475;-53
2022/01/10 04:40:38;;;;;;;1.63;1.53;;;;;;;8.78;100.00;93782.91;5135596;27;20470;-53
2022/01/10 04:43:07;;;;;;;0.30;0.20;;;;;;;8.65;100.00;93779.19;5135924;27;20462;-53
2022/01/10 04:45:35;;;;;;;0.83;0.83;;;;;;;8.46;100.00;93757.41;5135233;27;20471;-53
2022/01/10 04:48:04;;;;;;;2.97;2.67;;;;;;;8.49;100.00;93777.16;5135457;27;20516;-53
2022/01/10 04:53:19;;;;;;;0.40;0.30;;;;;;;8.76;100.00;93780.56;5124484;27;20442;-53
2022/01/10 04:55:48;;;;;;;1.23;1.13;;;;;;;8.23;100.00;93782.09;5135429;27;20419;-53
2022/01/10 04:58:17;;;;;;;0.43;0.40;;;;;;;8.11;100.00;93779.94;5135177;27;20810;-53
2022/01/10 05:00:45;;;;;;;0.40;0.30;;;;;;;7.99;100.00;93781.47;5134791;27;20497;-53
2022/01/10 05:03:17;;;;;;;0.40;0.40;;;;;;;7.20;100.00;93685.75;5135244;27;20808;-53
2022/01/10 05:05:45;;;;;;;0.67;0.67;;;;;;;8.01;100.00;93780.09;5134933;27;20517;-53
2022/01/10 05:08:14;;;;;;;0.80;0.80;;;;;;;8.11;100.00;93787.06;5134912;27;20450;-53
2022/01/10 05:10:44;;;;;;;0.50;0.50;;;;;;;8.14;100.00;93778.56;5134976;27;20474;-53
2022/01/10 05:13:12;;;;;;;1.37;1.37;;;;;;;8.49;100.00;93785.88;5135173;27;20419;-53
2022/01/10 05:15:42;;;;;;;0.30;0.30;;;;;;;7.96;100.00;93740.63;5134182;27;20470;-53
2022/01/10 05:18:11;;;;;;;0.30;0.20;;;;;;;8.05;100.00;93781.06;5134828;27;20423;-53
2022/01/10 05:20:39;;;;;;;0.30;0.20;;;;;;;8.05;100.00;93783.72;5134689;27;20430;-53
2022/01/10 05:23:08;;;;;;;0.47;0.40;;;;;;;7.50;100.00;93640.44;5134559;27;20474;-52
2022/01/10 05:25:40;;;;;;;0.40;0.30;;;;;;;8.73;100.00;93791.72;5134876;27;20434;-53
2022/01/10 05:28:11;;;;;;;0.30;0.20;;;;;;;8.52;100.00;93785.28;5134569;27;20468;-53
2022/01/10 05:30:41;;;;;;;0.30;0.20;;;;;;;8.35;100.00;93779.03;5134383;27;20491;-53
2022/01/10 05:33:10;;;;;;;0.30;0.20;;;;;;;7.53;100.00;93668.06;5134589;27;20489;-53
2022/01/10 05:35:39;;;;;;;2.60;2.00;;;;;;;8.29;100.00;93783.59;5134105;27;20487;-53
2022/01/10 05:38:08;;;;;;;0.30;0.30;;;;;;;7.78;100.00;93738.81;5134475;27;20431;-54
2022/01/10 05:40:36;;;;;;;0.30;0.23;;;;;;;8.46;100.00;93794.38;5134116;27;20550;-54
2022/01/10 05:43:05;;;;;;;0.70;0.70;;;;;;;8.23;100.00;93784.72;5133900;27;20470;-54
2022/01/10 05:45:35;;;;;;;0.30;0.20;;;;;;;8.42;100.00;93798.69;5134240;27;20433;-53
2022/01/10 05:48:11;;;;;;;0.30;0.20;;;;;;;8.57;100.00;93798.38;5133611;27;20822;-53
2022/01/10 05:50:42;;;;;;;0.30;0.20;;;;;;;8.10;100.00;93761.72;5134032;27;20514;-53
2022/01/10 05:53:12;;;;;;;0.30;0.27;;;;;;;8.42;100.00;93798.69;5133987;27;20426;-54
2022/01/10 05:55:40;;;;;;;1.07;0.77;;;;;;;8.37;100.00;93801.41;5134028;27;20472;-53
2022/01/10 05:58:09;;;;;;;0.30;0.20;;;;;;;8.66;100.00;93807.19;5133162;27;20854;-53
2022/01/10 06:00:40;;;;;;;0.30;0.30;;;;;;;8.46;100.00;93783.81;5133571;27;20483;-53
2022/01/10 06:03:08;;;;;;;0.30;0.30;;;;;;;8.61;100.00;93819.69;5133412;27;20469;-53
2022/01/10 06:05:41;;;;;;;0.50;0.50;;;;;;;8.87;100.00;93818.13;5133704;27;20431;-54
2022/01/10 06:08:10;;;;;;;0.50;0.50;;;;;;;7.85;100.00;93681.22;5133985;27;20426;-53
2022/01/10 06:10:39;;;;;;;0.37;0.27;;;;;;;8.29;100.00;93770.41;5133605;27;20426;-53
2022/01/10 06:13:08;;;;;;;0.70;0.70;;;;;;;7.32;100.00;93646.53;5133590;27;20422;-53
2022/01/10 06:15:36;;;;;;;2.90;2.80;;;;;;;8.04;100.00;93836.78;5133725;27;20495;-54
2022/01/10 06:18:06;;;;;;;1.60;1.57;;;;;;;6.61;100.00;93612.63;5133524;27;20431;-53
2022/01/10 06:20:35;;;;;;;1.90;1.63;;;;;;;8.15;100.00;93814.41;5133952;27;20430;-53
2022/01/10 06:23:03;;;;;;;1.10;1.10;;;;;;;7.79;100.00;93758.06;5133218;27;20533;-54
2022/01/10 06:25:32;;;;;;;2.37;2.37;;;;;;;7.79;100.00;93785.22;5133019;27;20458;-54
2022/01/10 06:28:00;;;;;;;3.77;0.63;;;;;;;8.17;100.00;93793.81;5133627;27;20430;-54
2022/01/10 06:30:29;;;;;;;1.57;1.53;;;;;;;8.58;100.00;93826.34;5133495;27;20476;-54
2022/01/10 06:32:57;;;;;;;0.30;0.20;;;;;;;8.23;100.00;93766.25;5133271;27;20458;-54
2022/01/10 06:35:28;;;;;;;1.47;1.47;;;;;;;8.56;100.00;93802.09;5133378;27;20499;-54
2022/01/10 06:37:56;;;;;;;4.87;3.37;;;;;;;8.13;100.00;93798.88;5132888;27;20430;-54
2022/01/10 06:40:27;;;;;;;0.70;0.70;;;;;;;8.50;100.00;93816.44;5133222;27;20418;-54
2022/01/10 06:42:56;;;;;;;1.33;1.33;;;;;;;8.77;100.00;93832.34;5133107;27;20934;-54
2022/01/10 06:45:25;;;;;;;1.03;1.03;;;;;;;8.57;100.00;93803.66;5133360;27;20434;-53
2022/01/10 06:47:54;;;;;;;1.07;1.07;;;;;;;7.18;100.00;93606.22;5133111;27;20469;-53
2022/01/10 06:50:22;;;;;;;1.83;1.73;;;;;;;8.52;100.00;93816.97;5132837;27;20430;-53
2022/01/10 06:52:54;;;;;;;0.80;0.80;;;;;;;8.66;100.00;93830.94;5132804;27;20431;-53
2022/01/10 06:55:24;;;;;;;2.67;2.57;;;;;;;8.78;100.00;93831.25;5132938;27;20434;-53
2022/01/10 06:57:53;;;;;;;0.40;0.30;;;;;;;8.61;100.00;93814.41;5132725;27;20817;-53
2022/01/10 07:00:22;;;;;;;2.97;1.40;;;;;;;8.35;100.00;93816.72;5132411;27;20450;-54
2022/01/10 07:02:51;;;;;;;0.70;0.70;;;;;;;7.28;100.00;93655.31;5133283;27;20804;-54
2022/01/10 07:05:20;;;;;;;1.70;1.60;;;;;;;7.93;100.00;93758.88;5132772;27;20501;-54
2022/01/10 07:07:48;;;;;;;0.40;0.30;;;;;;;7.77;100.00;93739.13;5132788;27;20419;-54
2022/01/10 07:10:18;;;;;;;0.60;0.60;;;;;;;7.77;100.00;93725.94;5132784;27;20441;-54
2022/01/10 07:12:50;;;;;;;0.40;0.40;;;;;;;8.05;100.00;93770.53;5132585;27;20431;-54
2022/01/10 07:15:18;;;;;;;3.07;2.80;;;;;;;8.23;100.00;93837.50;5132684;27;20425;-54
2022/01/10 07:17:47;;;;;;;1.80;1.70;;;;;;;7.87;100.00;93744.22;5132483;27;20491;-54
2022/01/10 07:20:15;;;;;;;5.17;2.50;;;;;;;8.73;100.00;93843.75;5132723;28;20423;-54
2022/01/10 07:22:45;;;;;;;3.17;1.13;;;;;;;8.37;100.00;93792.69;5132627;27;20458;-54
2022/01/10 07:25:13;;;;;;;6.90;1.93;;;;;;;8.67;100.00;93834.38;5132182;28;20509;-54
2022/01/10 07:27:43;;;;;;;0.87;0.87;;;;;;;8.58;100.00;93836.13;5132898;28;20861;-54
2022/01/10 07:30:12;;;;;;;0.80;0.80;;;;;;;8.27;100.00;93834.03;5132652;28;20422;-54
2022/01/10 07:32:40;;;;;;;1.33;0.70;;;;;;;8.35;100.00;93816.72;5132354;28;20794;-53
2022/01/10 07:35:10;;;;;;;0.87;0.87;;;;;;;7.84;100.00;93732.41;5132577;27;20957;-53
2022/01/10 07:37:39;;;;;;;0.30;0.30;;;;;;;7.96;100.00;93768.84;5132786;27;20434;-53
2022/01/10 07:40:08;;;;;;;0.37;0.37;;;;;;;8.48;100.00;93842.38;5132019;27;20431;-53
2022/01/10 07:42:37;;;;;;;1.00;1.00;;;;;;;8.67;100.00;93839.66;5132306;28;20971;-53
2022/01/10 07:45:07;;;;;;;0.43;0.43;;;;;;;8.67;100.00;93847.59;5132801;28;20459;-53
2022/01/10 07:47:37;;;;;;;0.80;0.80;;;;;;;7.63;100.00;93712.72;5132421;28;20526;-53
2022/01/10 07:50:07;;;;;;;0.40;0.40;;;;;;;8.98;100.00;93850.44;5132760;27;20469;-53
2022/01/10 07:52:36;;;;;;;1.27;1.27;;;;;;;9.02;100.00;93838.19;5132934;28;20550;-53
2022/01/10 07:55:06;;;;;;;0.50;0.50;;;;;;;8.72;100.00;93790.16;5132355;28;21010;-53
2022/01/10 07:57:34;;;;;;;1.13;1.13;;;;;;;7.11;100.00;93634.00;5132096;28;20426;-53
2022/01/10 08:00:04;;;;;;;0.50;0.50;;;;;;;8.25;100.00;93845.91;5132196;28;20423;-53
2022/01/10 08:02:34;;;;;;;1.33;0.53;;;;;;;8.25;100.00;93793.13;5132194;28;20521;-53
2022/01/10 08:05:02;;;;;;;0.40;0.30;;;;;;;8.80;100.00;93815.88;5132021;27;20545;-53
2022/01/10 08:07:31;;;;;;;0.73;0.73;;;;;;;8.68;100.00;93791.03;5132167;28;20992;-53
2022/01/10 08:09:59;;;;;;;0.40;0.40;;;;;;;9.19;100.00;93841.00;5132172;27;20438;-53
2022/01/10 08:12:27;;;;;;;0.97;0.97;;;;;;;9.11;100.00;93847.75;5131864;28;20491;-53
2022/01/10 08:14:56;;;;;;;1.17;1.17;;;;;;;8.37;100.00;93695.03;5132210;28;20465;-53
2022/01/10 08:17:25;;;;;;;0.97;0.97;;;;;;;9.26;100.00;93838.75;5132067;28;20466;-53
2022/01/10 08:19:54;;;;;;;0.70;0.70;;;;;;;8.61;100.00;93729.91;5131995;28;20462;-53
2022/01/10 08:22:23;;;;;;;0.37;0.33;;;;;;;9.39;100.00;93843.22;5132516;28;20471;-53
2022/01/10 08:24:52;;;;;;;2.40;2.30;;;;;;;9.40;100.00;93840.28;5131730;27;20470;-53
2022/01/10 08:27:21;;;;;;;0.30;0.20;;;;;;;9.48;100.00;93820.28;5135358;27;21061;-53
2022/01/10 08:29:49;;;;;;;1.07;0.90;;;;;;;9.09;100.00;93757.44;5136276;27;20554;-53
2022/01/10 08:32:18;;;;;;;0.40;0.40;;;;;;;9.58;100.00;93817.44;5135935;27;20497;-53
2022/01/10 08:34:47;;;;;;;1.40;1.30;;;;;;;9.38;100.00;93802.00;5135920;27;20458;-53
2022/01/10 08:37:17;;;;;;;0.33;0.27;;;;;;;9.64;100.00;93845.31;5135456;27;20427;-53
2022/01/10 08:39:49;;;;;;;0.70;0.70;;;;;;;9.81;100.00;93849.97;5135525;27;20469;-53
2022/01/10 08:42:18;;;;;;;1.13;1.10;;;;;;;9.94;100.00;93843.84;5136034;27;20468;-53
2022/01/10 08:44:47;;;;;;;2.23;2.13;;;;;;;9.79;100.00;93838.91;5135324;27;20502;-54
2022/01/10 08:47:20;;;;;;;3.33;2.10;;;;;;;9.89;100.00;93841.31;5135709;27;20453;-53
2022/01/10 08:49:49;;;;;;;0.40;0.30;;;;;;;9.45;100.00;93797.88;5134280;27;20513;-52
2022/01/10 08:52:19;;;;;;;1.00;1.00;;;;;;;9.92;100.00;93849.44;5135185;27;20753;-52
2022/01/10 08:54:49;;;;;;;0.97;0.97;;;;;;;9.88;100.00;93850.34;5135095;27;20470;-53
2022/01/10 08:57:18;;;;;;;0.40;0.40;;;;;;;10.10;100.00;93840.53;5135538;27;20430;-53
2022/01/10 08:59:47;;;;;;;1.37;1.37;;;;;;;9.44;100.00;93726.75;5135132;27;20427;-53
2022/01/10 09:02:15;;;;;;;1.43;1.33;;;;;;;9.38;100.00;93800.16;5134896;27;21066;-53
2022/01/10 09:04:44;;;;;;;1.37;1.27;;;;;;;9.59;100.00;93845.41;5134997;27;20458;-53
2022/01/10 09:07:13;;;;;;;1.33;1.30;;;;;;;9.68;100.00;93841.00;5134916;27;20462;-53
2022/01/10 09:09:43;;;;;;;2.10;1.70;;;;;;;9.55;100.00;93839.97;5134808;27;20475;-53
2022/01/10 09:12:12;;;;;;;7.83;2.03;;;;;;;9.40;100.00;93840.28;5135210;27;20495;-53
2022/01/10 09:14:41;;;;;;;0.63;0.63;;;;;;;9.67;100.00;93842.06;5134803;27;20487;-53
2022/01/10 09:17:09;;;;;;;2.50;2.40;;;;;;;9.12;100.00;93791.19;5135041;27;20431;-53
2022/01/10 09:19:38;;;;;;;0.60;0.60;;;;;;;9.43;100.00;93836.28;5134817;27;20426;-53
2022/01/10 09:22:07;;;;;;;5.33;2.50;;;;;;;8.87;100.00;93818.94;5134636;27;20434;-53
2022/01/10 09:24:35;;;;;;;4.20;3.93;;;;;;;9.31;100.00;93839.41;5134779;27;20466;-53
2022/01/10 09:27:07;;;;;;;2.20;1.97;;;;;;;9.62;100.00;93850.13;5134462;27;20430;-53
2022/01/10 09:29:36;;;;;;;3.13;2.20;;;;;;;9.69;100.00;93839.91;5134576;27;20426;-53
2022/01/10 09:32:05;;;;;;;1.77;1.67;;;;;;;9.77;100.00;93839.19;5134222;27;20441;-54
2022/01/10 09:34:34;;;;;;;1.47;0.90;;;;;;;9.68;100.00;93835.72;5134901;27;20415;-54
2022/01/10 09:37:02;;;;;;;3.90;1.90;;;;;;;9.93;100.00;93847.56;5134024;27;20422;-53
2022/01/10 09:39:31;;;;;;;2.70;2.53;;;;;;;9.89;100.00;93842.09;5133728;27;20426;-53
2022/01/10 09:41:59;;;;;;;1.77;0.90;;;;;;;10.08;100.00;93842.72;5133713;27;20891;-53
2022/01/10 09:44:29;;;;;;;3.23;3.13;;;;;;;10.10;100.00;93835.25;5133969;27;20422;-53
2022/01/10 09:46:58;;;;;;;1.43;1.40;;;;;;;10.20;100.00;93839.53;5133601;27;20427;-53
2022/01/10 09:49:27;;;;;;;0.70;0.70;;;;;;;10.25;100.00;93830.66;5133679;27;20475;-53
2022/01/10 09:51:55;;;;;;;3.90;1.73;;;;;;;9.83;100.00;93761.28;5133523;27;20499;-53
2022/01/10 09:54:23;;;;;;;1.80;0.30;;;;;;;9.77;100.00;93733.38;5133938;27;20474;-53
2022/01/10 09:56:52;;;;;;;0.50;0.50;;;;;;;10.02;100.00;93828.00;5133848;27;20483;-53
2022/01/10 09:59:20;;;;;;;0.83;0.83;;;;;;;10.07;100.00;93822.59;5134008;27;20422;-53
2022/01/10 10:01:50;;;;;;;1.47;1.37;;;;;;;10.13;100.00;93826.72;5133745;27;20505;-53
2022/01/10 10:04:20;;;;;;;0.87;0.87;;;;;;;9.74;100.00;93794.81;5133318;27;20525;-53
2022/01/10 10:06:49;;;;;;;1.00;1.00;;;;;;;9.90;100.00;93819.84;5133465;27;20527;-54
2022/01/10 10:09:18;;;;;;;0.43;0.40;;;;;;;9.58;100.00;93823.50;5134001;27;20900;-54
2022/01/10 10:11:48;;;;;;;0.83;0.80;;;;;;;9.94;100.00;93823.44;5133979;27;20426;-54
2022/01/10 10:14:18;;;;;;;0.93;0.60;;;;;;;9.65;100.00;93742.94;5133457;27;20431;-54
2022/01/10 10:16:50;;;;;;;0.80;0.80;;;;;;;10.19;100.00;93817.56;5133535;27;20438;-54
2022/01/10 10:19:21;;;;;;;0.50;0.50;;;;;;;10.26;100.00;93825.09;5133655;27;20840;-54
2022/01/10 10:21:51;;;;;;;0.40;0.40;;;;;;;10.00;100.00;93803.72;5133145;27;20483;-54
2022/01/10 10:24:20;;;;;;;1.10;1.10;;;;;;;10.24;100.00;93824.63;5133486;27;20453;-53
2022/01/10 10:26:48;;;;;;;0.53;0.53;;;;;;;10.34;100.00;93812.97;5133496;27;20555;-54
2022/01/10 10:29:18;;;;;;;4.23;2.07;;;;;;;9.66;100.00;93821.22;5133544;27;20434;-53
2022/01/10 10:31:49;;;;;;;0.77;0.77;;;;;;;9.72;100.00;93815.50;5132922;27;20430;-54
2022/01/10 10:34:21;;;;;;;1.07;1.07;;;;;;;9.56;100.00;93815.06;5133236;27;20470;-54
2022/01/10 10:37:01;;;;;;;0.70;0.70;;;;;;;8.66;100.00;93648.72;5132536;27;20499;-53
2022/01/10 10:39:31;;;;;;;0.60;0.40;;;;;;;9.84;100.00;93814.97;5133072;27;20827;-53
2022/01/10 10:42:03;;;;;;;0.70;0.37;;;;;;;9.91;100.00;93817.97;5133218;27;20503;-53
2022/01/10 10:44:32;;;;;;;0.40;0.30;;;;;;;9.73;100.00;93814.44;5133220;27;20458;-54
2022/01/10 10:47:01;;;;;;;0.80;0.80;;;;;;;9.67;100.00;93789.16;5132640;27;20531;-53
2022/01/10 10:49:36;;;;;;;0.93;0.93;;;;;;;9.84;100.00;93810.44;5132294;27;20419;-54
2022/01/10 10:52:08;;;;;;;0.30;0.20;;;;;;;9.69;100.00;93824.03;5132901;27;20441;-54
2022/01/10 10:54:37;;;;;;;1.17;1.17;;;;;;;9.58;100.00;93788.34;5133242;27;20407;-54
2022/01/10 10:57:08;;;;;;;0.50;0.50;;;;;;;9.74;100.00;93817.88;5133057;27;20435;-55
2022/01/10 10:59:40;;;;;;;0.30;0.20;;;;;;;9.89;100.00;93806.94;5132827;27;20949;-54
2022/01/10 11:02:08;;;;;;;0.30;0.20;;;;;;;9.41;100.00;93757.22;5132554;27;20836;-54
2022/01/10 11:04:38;;;;;;;0.60;0.60;;;;;;;9.56;100.00;93820.34;5132924;27;20427;-54
2022/01/10 11:07:07;;;;;;;0.43;0.43;;;;;;;8.88;100.00;93778.22;5132799;27;20509;-54
2022/01/10 11:09:56;;;;;;;0.53;0.53;;;;;;;9.57;100.00;93810.56;5132465;27;20537;-54
2022/01/10 11:12:26;;;;;;;0.80;0.80;;;;;;;8.79;100.00;93621.50;5131661;27;20456;-54
2022/01/10 11:14:56;;;;;;;0.30;0.20;;;;;;;9.57;100.00;93747.09;5132584;27;20443;-54
2022/01/10 11:17:25;;;;;;;0.30;0.30;;;;;;;9.49;100.00;93776.88;5132491;27;20427;-53
2022/01/10 11:20:16;;;;;;;0.70;0.70;;;;;;;9.78;100.00;93816.19;5131746;28;20427;-54
2022/01/10 11:22:47;;;;;;;1.00;1.00;;;;;;;9.98;100.00;93787.38;5132367;28;20414;-54
2022/01/10 11:25:25;;;;;;;0.40;0.40;;;;;;;9.85;100.00;93808.59;5132648;28;20427;-54
2022/01/10 11:27:54;;;;;;;1.93;1.90;;;;;;;9.74;100.00;93780.84;5132266;28;20419;-54
2022/01/10 11:30:32;;;;;;;1.23;1.13;;;;;;;9.81;100.00;93821.66;5132453;27;20484;-54
2022/01/10 11:33:05;;;;;;;0.77;0.67;;;;;;;9.77;100.00;93788.94;5132873;27;20499;-54
2022/01/10 11:35:53;;;;;;;14.63;1.23;;;;;;;10.11;100.00;93805.06;5131871;27;20462;-54
2022/01/10 11:38:32;;;;;;;0.87;0.83;;;;;;;9.88;100.00;93808.78;5132808;28;20415;-54
2022/01/10 11:41:04;;;;;;;2.43;1.20;;;;;;;9.40;100.00;93770.75;5132942;27;20786;-54
2022/01/10 11:43:48;;;;;;;0.50;0.50;;;;;;;9.56;100.00;93838.09;5132654;27;20449;-53
2022/01/10 11:46:22;;;;;;;3.97;1.00;;;;;;;9.51;100.00;93832.94;5132364;28;20462;-53
2022/01/10 11:48:55;;;;;;;0.90;0.90;;;;;;;9.47;100.00;93843.31;5132523;27;20434;-53
2022/01/10 11:51:27;;;;;;;2.83;1.30;;;;;;;9.79;100.00;93837.03;5132380;28;20422;-53